createdAt,value
2022-08-26T00:04:11.957Z,101078.38
2022-08-26T00:09:16.078Z,101067.91
2022-08-26T00:14:18.542Z,101064.53
2022-08-26T00:19:22.224Z,101066.38
2022-08-26T00:24:24.224Z,101075.16
2022-08-26T00:29:27.281Z,101070.75
2022-08-26T00:34:29.120Z,101066.44
2022-08-26T00:39:31.400Z,101070.84
2022-08-26T00:44:33.106Z,101056.97
2022-08-26T00:49:44.647Z,101058.78
2022-08-26T00:55:40.190Z,101060.56
2022-08-26T01:00:41.961Z,101064.97
2022-08-26T01:05:47.025Z,101052.59
2022-08-26T01:10:49.181Z,101054.31
2022-08-26T01:16:00.899Z,101056.94
2022-08-26T01:21:47.256Z,101057.78
2022-08-26T01:26:49.979Z,101069.19
2022-08-26T01:31:57.156Z,101070.06
2022-08-26T01:37:21.903Z,101034.94
2022-08-26T01:42:26.962Z,101057.75
2022-08-26T01:47:33.314Z,101057.78
2022-08-26T01:52:41.058Z,101034.25
2022-08-26T01:57:48.408Z,101049.28
2022-08-26T02:03:15.912Z,101040.50
2022-08-26T02:08:36.782Z,101062.53
2022-08-26T02:13:51.652Z,101047.63
2022-08-26T02:18:58.478Z,101040.56
2022-08-26T02:24:17.618Z,101037.09
2022-08-26T02:29:44.682Z,101052.91
2022-08-26T02:34:47.156Z,101046.78
2022-08-26T02:39:48.899Z,101031.88
2022-08-26T02:44:50.787Z,101055.53
2022-08-26T02:49:52.904Z,101036.16
2022-08-26T02:54:54.678Z,101048.44
2022-08-26T02:59:57.273Z,101016.84
2022-08-26T03:05:02.536Z,101038.69
2022-08-26T03:10:08.764Z,101044.91
2022-08-26T03:15:17.996Z,101013.28
2022-08-26T03:20:20.485Z,101026.44
2022-08-26T03:25:23.068Z,101020.34
2022-08-26T03:30:44.855Z,101012.44
2022-08-26T03:35:50.778Z,101009.75
2022-08-26T03:40:52.706Z,101007.13
2022-08-26T03:45:54.374Z,101015.94
2022-08-26T03:50:56.473Z,101008.13
2022-08-26T03:55:59.558Z,101010.00
2022-08-26T04:01:01.257Z,101020.63
2022-08-26T04:06:04.542Z,101011.81
2022-08-26T04:11:07.286Z,101016.16
2022-08-26T04:16:10.194Z,101006.50
2022-08-26T04:21:12.746Z,101009.13
2022-08-26T04:26:20.837Z,101002.13
2022-08-26T04:31:22.970Z,100989.03
2022-08-26T04:36:25.249Z,100992.53
2022-08-26T04:41:27.798Z,101002.16
2022-08-26T04:46:33.648Z,101012.69
2022-08-26T04:51:37.265Z,101007.31
2022-08-26T04:56:45.148Z,100999.47
2022-08-26T05:01:52.317Z,101013.34
2022-08-26T05:06:59.268Z,101001.81
2022-08-26T05:12:04.878Z,101003.50
2022-08-26T05:17:06.807Z,101012.06
2022-08-26T05:22:08.543Z,101019.91
2022-08-26T05:27:11.781Z,101015.31
2022-08-26T05:32:13.828Z,101016.91
2022-08-26T05:37:16.561Z,101001.84
2022-08-26T05:42:19.825Z,100996.47
2022-08-26T05:47:21.507Z,100994.59
2022-08-26T05:52:25.968Z,100996.19
2022-08-26T05:57:30.830Z,100999.47
2022-08-26T06:02:32.575Z,100984.13
2022-08-26T06:07:52.835Z,100973.94
2022-08-26T06:12:54.613Z,100961.66
2022-08-26T06:17:56.930Z,100945.34
2022-08-26T06:23:17.717Z,100964.41
2022-08-26T06:28:19.452Z,100961.03
2022-08-26T06:33:27.861Z,100960.53
2022-08-26T06:38:29.646Z,100949.66
2022-08-26T06:43:31.413Z,100942.38
2022-08-26T06:48:35.160Z,100957.50
2022-08-26T06:53:41.054Z,100953.44
2022-08-26T06:58:44.060Z,100948.44
2022-08-26T07:03:48.603Z,100938.66
2022-08-26T07:08:54.433Z,100955.06
2022-08-26T07:13:56.466Z,100948.22
2022-08-26T07:18:58.697Z,100931.63
2022-08-26T07:24:04.311Z,100938.25
2022-08-26T07:29:06.831Z,100928.84
2022-08-26T07:34:09.289Z,100924.81
2022-08-26T07:39:11.461Z,100934.91
2022-08-26T07:44:15.450Z,100934.03
2022-08-26T07:49:17.775Z,100938.44
2022-08-26T07:54:20.724Z,100920.09
2022-08-26T07:59:28.449Z,100918.88
2022-08-26T08:04:32.415Z,100887.38
2022-08-26T08:09:34.315Z,100918.88
2022-08-26T08:14:37.306Z,100918.78
2022-08-26T08:19:39.504Z,100903.44
2022-08-26T08:24:41.214Z,100903.56
2022-08-26T08:29:43.429Z,100911.19
2022-08-26T08:34:45.157Z,100907.19
2022-08-26T08:39:46.883Z,100899.94
2022-08-26T08:44:57.182Z,100898.84
2022-08-26T08:50:20.467Z,100905.00
2022-08-26T08:55:28.248Z,100893.81
2022-08-26T09:00:46.979Z,100884.88
2022-08-26T09:05:53.271Z,100880.72
2022-08-26T09:11:00.890Z,100876.22
2022-08-26T09:16:13.913Z,100888.66
2022-08-26T09:21:23.517Z,100880.53
2022-08-26T09:26:45.237Z,100872.47
2022-08-26T09:31:50.776Z,100869.66
2022-08-26T09:36:54.991Z,100878.47
2022-08-26T09:42:19.819Z,100878.88
2022-08-26T09:47:55.957Z,100876.63
2022-08-26T09:53:09.996Z,100857.19
2022-08-26T09:58:37.973Z,100832.81
2022-08-26T10:03:40.917Z,100834.63
2022-08-26T10:08:49.844Z,100825.50
2022-08-26T10:14:12.516Z,100813.75
2022-08-26T10:19:29.150Z,100803.22
2022-08-26T10:24:55.151Z,100774.13
2022-08-26T10:30:10.354Z,100776.84
2022-08-26T10:35:17.174Z,100755.22
2022-08-26T10:40:50.075Z,100769.31
2022-08-26T10:46:06.898Z,100763.06
2022-08-26T10:51:12.742Z,100757.72
2022-08-26T10:56:36.954Z,100736.56
2022-08-26T11:01:52.405Z,100730.53
2022-08-26T11:07:42.039Z,100734.94
2022-08-26T11:12:45.339Z,100723.53
2022-08-26T11:17:50.814Z,100727.31
2022-08-26T11:22:56.510Z,100720.66
2022-08-26T11:28:02.222Z,100700.81
2022-08-26T11:33:06.036Z,100687.41
2022-08-26T11:38:28.954Z,100695.81
2022-08-26T11:43:33.561Z,100752.44
2022-08-26T11:48:43.494Z,100747.34
2022-08-26T11:53:47.218Z,100747.59
2022-08-26T11:58:49.890Z,100751.50
2022-08-26T12:03:53.258Z,100751.31
2022-08-26T12:09:01.279Z,100755.06
2022-08-26T12:14:25.902Z,100775.84
2022-08-26T12:19:34.034Z,100811.00
2022-08-26T12:24:47.666Z,100828.09
2022-08-26T12:30:14.033Z,100823.22
2022-08-26T12:35:20.615Z,100806.44
2022-08-26T12:40:43.167Z,100806.19
2022-08-26T12:46:00.487Z,100808.09
2022-08-26T12:51:06.074Z,100811.75
2022-08-26T12:56:24.612Z,100815.50
2022-08-26T13:01:26.492Z,100838.63
2022-08-26T13:06:31.115Z,100851.78
2022-08-26T13:11:55.735Z,100851.31
2022-08-26T13:16:57.516Z,100853.44
2022-08-26T13:22:01.192Z,100846.63
2022-08-26T13:27:06.850Z,100852.84
2022-08-26T13:32:09.727Z,100868.09
2022-08-26T13:37:12.227Z,100867.78
2022-08-26T13:42:14.175Z,100834.97
2022-08-26T13:47:16.854Z,100828.97
2022-08-26T13:52:18.633Z,100812.44
2022-08-26T13:57:32.150Z,100806.59
2022-08-26T14:02:33.910Z,100814.50
2022-08-26T14:07:35.781Z,100831.38
2022-08-26T14:12:37.568Z,100858.66
2022-08-26T14:17:39.819Z,100864.59
2022-08-26T14:23:03.585Z,100903.06
2022-08-26T14:28:06.261Z,100964.03
2022-08-26T14:33:14.214Z,100975.63
2022-08-26T14:38:16.636Z,100972.13
2022-08-26T14:43:18.437Z,100934.38
2022-08-26T14:48:20.248Z,100914.03
2022-08-26T14:53:40.139Z,100895.41
2022-08-26T14:58:41.896Z,100879.47
2022-08-26T15:03:43.770Z,100875.72
2022-08-26T15:08:45.771Z,100867.59
2022-08-26T15:13:47.859Z,100864.34
2022-08-26T15:18:51.555Z,100820.06
2022-08-26T15:23:54.319Z,100810.94
2022-08-26T15:28:56.857Z,100795.91
2022-08-26T15:34:02.659Z,100788.84
2022-08-26T15:39:07.471Z,100789.94
2022-08-26T15:44:10.631Z,100774.00
2022-08-26T15:49:18.520Z,100785.56
2022-08-26T15:54:23.862Z,100787.72
2022-08-26T15:59:25.807Z,100778.16
2022-08-26T16:04:28.254Z,100764.00
2022-08-26T16:09:30.728Z,100770.06
2022-08-26T16:14:32.669Z,100764.91
2022-08-26T16:19:34.473Z,100783.44
2022-08-26T16:24:37.156Z,100791.38
2022-08-26T16:29:39.711Z,100787.88
2022-08-26T16:34:55.249Z,100787.81
2022-08-26T16:39:58.616Z,100778.03
2022-08-26T16:45:00.500Z,100799.09
2022-08-26T16:50:06.590Z,100780.63
2022-08-26T16:55:15.731Z,100800.78
2022-08-26T17:00:32.076Z,100816.00
2022-08-26T17:05:34.155Z,100817.66
2022-08-26T17:10:36.168Z,100806.19
2022-08-26T17:15:37.966Z,100815.81
2022-08-26T17:20:39.760Z,100821.97
2022-08-26T17:25:41.612Z,100827.97
2022-08-26T17:30:44.324Z,100831.56
2022-08-26T17:35:46.564Z,100828.94
2022-08-26T17:40:49.868Z,100829.66
2022-08-26T17:45:51.655Z,100818.19
2022-08-26T17:50:53.666Z,100806.00
2022-08-26T17:55:55.386Z,100818.19
2022-08-26T18:00:57.100Z,100811.16
2022-08-26T18:05:58.904Z,100816.50
2022-08-26T18:11:00.654Z,100819.09
2022-08-26T18:16:06.382Z,100808.56
2022-08-26T18:21:19.834Z,100811.34
2022-08-26T18:26:35.074Z,100798.13
2022-08-26T18:31:37.377Z,100788.47
2022-08-26T18:36:40.327Z,100794.63
2022-08-26T18:41:48.448Z,100794.66
2022-08-26T18:46:51.517Z,100781.53
2022-08-26T18:51:53.407Z,100766.59
2022-08-26T18:56:56.283Z,100752.53
2022-08-26T19:01:58.917Z,100749.94
2022-08-26T19:07:00.837Z,100770.13
2022-08-26T19:12:04.210Z,100769.34
2022-08-26T19:17:07.402Z,100773.72
2022-08-26T19:22:09.216Z,100788.59
2022-08-26T19:27:14.696Z,100795.63
2022-08-26T19:32:17.572Z,100820.19
2022-08-26T19:37:21.146Z,100836.94
2022-08-26T19:42:22.886Z,100830.72
2022-08-26T19:47:26.215Z,100821.88
2022-08-26T19:52:30.019Z,100819.25
2022-08-26T19:57:32.213Z,100835.97
2022-08-26T20:02:34.126Z,100830.72
2022-08-26T20:07:36.711Z,100819.28
2022-08-26T20:12:41.569Z,100813.09
2022-08-26T20:17:43.440Z,100793.75
2022-08-26T20:22:45.746Z,100782.31
2022-08-26T20:27:47.827Z,100794.59
2022-08-26T20:32:49.707Z,100812.25
2022-08-26T20:37:51.518Z,100809.78
2022-08-26T20:42:53.286Z,100826.69
2022-08-26T20:47:55.152Z,100833.72
2022-08-26T20:52:56.910Z,100852.97
2022-08-26T20:57:58.662Z,100851.19
2022-08-26T21:03:00.456Z,100857.31
2022-08-26T21:08:02.533Z,100857.31
2022-08-26T21:13:04.438Z,100845.00
2022-08-26T21:18:06.301Z,100854.69
2022-08-26T21:23:08.111Z,100826.69
2022-08-26T21:28:10.247Z,100815.22
2022-08-26T21:33:12.141Z,100819.56
2022-08-26T21:38:13.874Z,100820.50
2022-08-26T21:43:27.745Z,100808.28
2022-08-26T21:48:40.283Z,100816.13
2022-08-26T21:53:42.291Z,100820.47
2022-08-26T21:58:44.686Z,100792.38
2022-08-26T22:03:48.442Z,100808.03
2022-08-26T22:08:50.658Z,100801.75
2022-08-26T22:13:52.509Z,100814.97
2022-08-26T22:18:55.156Z,100825.50
2022-08-26T22:23:58.590Z,100811.47
2022-08-26T22:29:01.855Z,100810.53
2022-08-26T22:34:12.234Z,100788.50
2022-08-26T22:39:19.950Z,100762.13
2022-08-26T22:44:22.515Z,100751.44
2022-08-26T22:49:24.883Z,100748.88
2022-08-26T22:54:26.694Z,100733.00
2022-08-26T22:59:28.498Z,100711.91
2022-08-26T23:04:30.324Z,100696.00
2022-08-26T23:09:32.278Z,100693.38
2022-08-26T23:14:34.222Z,100677.53
2022-08-26T23:19:36.125Z,100694.28
2022-08-26T23:24:37.868Z,100719.81
2022-08-26T23:29:39.833Z,100760.66
2022-08-26T23:34:56.560Z,100739.66
2022-08-26T23:40:02.156Z,100733.47
2022-08-26T23:45:12.762Z,100758.00
2022-08-26T23:50:14.743Z,100758.84
2022-08-26T23:55:16.907Z,100758.00
